Time;durP1;ratioP1;P1;durP2;ratioP2;P2;SDS_P1;SDS_P2;PMS_P1;PMS_P2;Temp;Humidity;BMP_temperature;BMP_pressure;BME280_temperature;BME280_humidity;BME280_pressure;Samples;Min_cycle;Max_cycle;Signal;HPM_P1;HPM_P2
2023/03/31 00:00:36;;;;;;;;;;;18.90;47.40;;;;;;10370655;28;826;-75
2023/03/31 00:05:32;;;;;;;;;;;18.90;47.40;;;;;;10370344;28;764;-75
2023/03/31 00:10:27;;;;;;;;;;;18.90;47.40;;;;;;10370502;28;856;-75
2023/03/31 00:15:22;;;;;;;;;;;18.90;47.40;;;;;;10370687;28;1902;-75
2023/03/31 00:20:18;;;;;;;;;;;18.90;47.40;;;;;;10370335;28;868;-75
2023/03/31 00:25:14;;;;;;;;;;;18.90;47.40;;;;;;10369929;28;873;-75
2023/03/31 00:30:09;;;;;;;;;;;18.90;47.30;;;;;;10370316;28;777;-75
2023/03/31 00:35:05;;;;;;;;;;;18.80;47.30;;;;;;10368408;28;1934;-75
2023/03/31 00:40:00;;;;;;;;;;;18.90;47.40;;;;;;10368165;28;825;-75
2023/03/31 00:44:56;;;;;;;;;;;18.90;47.30;;;;;;10369372;28;926;-75
2023/03/31 00:49:51;;;;;;;;;;;18.90;47.40;;;;;;10368569;28;811;-75
2023/03/31 00:54:47;;;;;;;;;;;18.80;47.30;;;;;;10368438;28;1911;-75
2023/03/31 00:59:42;;;;;;;;;;;18.80;47.40;;;;;;10368844;28;884;-75
2023/03/31 01:04:38;;;;;;;;;;;18.80;47.30;;;;;;10368660;28;877;-75
2023/03/31 01:09:34;;;;;;;;;;;18.80;47.30;;;;;;10367826;28;862;-75
2023/03/31 01:14:29;;;;;;;;;;;18.90;47.40;;;;;;10367993;28;768;-75
2023/03/31 01:19:24;;;;;;;;;;;18.90;47.30;;;;;;10367436;28;1887;-75
2023/03/31 01:24:20;;;;;;;;;;;18.80;47.30;;;;;;10367293;28;769;-75
2023/03/31 01:29:16;;;;;;;;;;;18.80;47.30;;;;;;10367107;28;864;-75
2023/03/31 01:34:11;;;;;;;;;;;18.80;47.40;;;;;;10367142;28;863;-75
2023/03/31 01:39:07;;;;;;;;;;;18.80;47.30;;;;;;10366877;28;1913;-75
2023/03/31 01:44:02;;;;;;;;;;;18.80;47.30;;;;;;10366810;28;830;-75
2023/03/31 01:48:58;;;;;;;;;;;18.80;47.30;;;;;;10366710;28;892;-75
2023/03/31 01:53:53;;;;;;;;;;;18.80;47.30;;;;;;10366405;28;872;-75
2023/03/31 01:58:49;;;;;;;;;;;18.80;47.40;;;;;;10366499;28;1917;-75
2023/03/31 02:03:44;;;;;;;;;;;18.70;47.30;;;;;;10366215;28;933;-75
2023/03/31 02:08:40;;;;;;;;;;;18.80;47.50;;;;;;10366294;28;782;-75
2023/03/31 02:13:36;;;;;;;;;;;18.80;47.40;;;;;;10365608;28;897;-75
2023/03/31 02:18:32;;;;;;;;;;;18.80;47.40;;;;;;10365994;28;1984;-75
2023/03/31 02:23:30;;;;;;;;;;;18.80;47.30;;;;;;10366098;28;853;-75
2023/03/31 02:28:25;;;;;;;;;;;18.80;47.40;;;;;;10365866;28;957;-75
2023/03/31 02:33:21;;;;;;;;;;;18.80;47.40;;;;;;10366051;28;979;-76
2023/03/31 02:38:16;;;;;;;;;;;18.80;47.40;;;;;;10366313;28;1981;-75
2023/03/31 02:43:12;;;;;;;;;;;18.80;47.40;;;;;;10367032;28;881;-75
2023/03/31 02:48:07;;;;;;;;;;;18.70;47.40;;;;;;10365763;28;915;-75
2023/03/31 02:53:02;;;;;;;;;;;18.70;47.40;;;;;;10366278;28;790;-75
2023/03/31 02:57:58;;;;;;;;;;;18.80;47.50;;;;;;10366187;28;1981;-75
2023/03/31 03:02:53;;;;;;;;;;;18.70;47.40;;;;;;10365814;28;1182;-75
2023/03/31 03:07:48;;;;;;;;;;;18.80;47.50;;;;;;10372528;28;844;-75
2023/03/31 03:12:44;;;;;;;;;;;18.80;47.50;;;;;;10372523;28;850;-75
2023/03/31 03:17:39;;;;;;;;;;;18.80;47.50;;;;;;10372207;28;1967;-75
2023/03/31 03:22:35;;;;;;;;;;;18.70;47.50;;;;;;10372058;28;920;-75
2023/03/31 03:27:31;;;;;;;;;;;18.70;47.50;;;;;;10372411;28;911;-75
2023/03/31 03:32:26;;;;;;;;;;;18.70;47.50;;;;;;10371560;28;886;-75
2023/03/31 03:37:22;;;;;;;;;;;18.70;47.50;;;;;;10371098;28;1913;-75
2023/03/31 03:42:17;;;;;;;;;;;18.70;47.40;;;;;;10371248;28;946;-75
2023/03/31 03:47:13;;;;;;;;;;;18.70;47.50;;;;;;10371877;28;876;-75
2023/03/31 03:52:08;;;;;;;;;;;18.70;47.50;;;;;;10370957;28;776;-75
2023/03/31 03:57:04;;;;;;;;;;;18.70;47.50;;;;;;10370809;28;1985;-75
2023/03/31 04:01:59;;;;;;;;;;;18.70;47.50;;;;;;10370427;28;867;-75
2023/03/31 04:06:54;;;;;;;;;;;18.70;47.40;;;;;;10370878;28;775;-75
2023/03/31 04:11:50;;;;;;;;;;;18.70;47.50;;;;;;10369960;28;797;-75
2023/03/31 04:16:45;;;;;;;;;;;18.70;47.40;;;;;;10369303;28;1963;-75
2023/03/31 04:21:43;;;;;;;;;;;18.70;47.50;;;;;;10370356;28;774;-75
2023/03/31 04:26:45;;;;;;;;;;;18.70;47.50;;;;;;10369691;28;784;-75
2023/03/31 04:31:43;;;;;;;;;;;18.70;47.50;;;;;;10370050;28;884;-75
2023/03/31 04:36:41;;;;;;;;;;;18.70;47.50;;;;;;10370021;28;1993;-75
2023/03/31 04:41:36;;;;;;;;;;;18.70;47.40;;;;;;10368711;28;931;-75
2023/03/31 04:46:32;;;;;;;;;;;18.80;47.40;;;;;;10368177;28;990;-75
2023/03/31 04:51:27;;;;;;;;;;;18.80;47.40;;;;;;10368566;28;894;-75
2023/03/31 04:56:23;;;;;;;;;;;18.80;47.50;;;;;;10368440;28;1994;-75
2023/03/31 05:01:18;;;;;;;;;;;18.70;47.30;;;;;;10368182;28;767;-75
2023/03/31 05:06:14;;;;;;;;;;;18.80;47.50;;;;;;10368125;28;1159;-75
2023/03/31 05:11:10;;;;;;;;;;;18.80;47.30;;;;;;10367603;28;898;-75
2023/03/31 05:16:05;;;;;;;;;;;18.80;47.40;;;;;;10367609;28;1914;-75
2023/03/31 05:21:00;;;;;;;;;;;18.80;47.40;;;;;;10368101;28;873;-75
2023/03/31 05:25:56;;;;;;;;;;;18.80;47.40;;;;;;10367530;28;860;-75
2023/03/31 05:30:51;;;;;;;;;;;18.90;47.40;;;;;;10367295;28;837;-75
2023/03/31 05:35:46;;;;;;;;;;;18.80;47.40;;;;;;10366064;28;1965;-75
2023/03/31 05:40:42;;;;;;;;;;;18.80;47.40;;;;;;10367274;28;878;-75
2023/03/31 05:45:37;;;;;;;;;;;18.80;47.30;;;;;;10366768;28;892;-75
2023/03/31 05:50:32;;;;;;;;;;;18.80;47.30;;;;;;10366268;28;947;-75
2023/03/31 05:55:28;;;;;;;;;;;18.80;47.30;;;;;;10366711;28;1918;-75
2023/03/31 06:00:23;;;;;;;;;;;18.80;47.30;;;;;;10366424;28;844;-75
2023/03/31 06:05:19;;;;;;;;;;;18.80;47.30;;;;;;10366956;28;875;-78
2023/03/31 06:10:14;;;;;;;;;;;18.80;47.30;;;;;;10366746;28;919;-77
2023/03/31 06:15:10;;;;;;;;;;;18.80;47.40;;;;;;10366744;28;1917;-76
2023/03/31 06:20:05;;;;;;;;;;;18.80;47.40;;;;;;10365821;28;911;-76
2023/03/31 06:25:01;;;;;;;;;;;18.80;47.40;;;;;;10365958;28;996;-76
2023/03/31 06:29:56;;;;;;;;;;;18.80;47.30;;;;;;10365949;28;807;-76
2023/03/31 06:34:51;;;;;;;;;;;18.80;47.30;;;;;;10322138;28;1902;-76
2023/03/31 06:39:47;;;;;;;;;;;18.80;47.30;;;;;;10328424;28;791;-76
2023/03/31 06:44:43;;;;;;;;;;;18.80;47.30;;;;;;10332907;28;840;-76
2023/03/31 06:49:38;;;;;;;;;;;18.80;47.30;;;;;;10332072;28;810;-75
2023/03/31 06:54:34;;;;;;;;;;;18.90;47.30;;;;;;10331976;28;1432;-75
2023/03/31 06:59:29;;;;;;;;;;;18.80;47.20;;;;;;10331150;28;1909;-77
2023/03/31 07:04:24;;;;;;;;;;;18.80;47.20;;;;;;10331065;28;883;-78
2023/03/31 07:09:22;;;;;;;;;;;18.80;47.80;;;;;;10331917;28;795;-76
2023/03/31 07:14:17;;;;;;;;;;;18.80;47.20;;;;;;10331111;28;962;-78
2023/03/31 07:19:14;;;;;;;;;;;18.80;47.80;;;;;;10330934;28;1964;-77
2023/03/31 07:24:09;;;;;;;;;;;18.80;47.20;;;;;;10330968;28;750;-77
2023/03/31 07:29:05;;;;;;;;;;;18.80;47.20;;;;;;10330655;28;846;-76
2023/03/31 07:34:00;;;;;;;;;;;18.90;47.20;;;;;;10331273;28;830;-77
2023/03/31 07:38:55;;;;;;;;;;;18.80;47.10;;;;;;10330511;28;1906;-78
2023/03/31 07:43:51;;;;;;;;;;;18.80;47.20;;;;;;10328433;28;988;-78
2023/03/31 07:48:46;;;;;;;;;;;18.80;47.20;;;;;;10329242;28;940;-77
2023/03/31 07:53:42;;;;;;;;;;;18.80;47.20;;;;;;10329918;28;771;-77
2023/03/31 07:58:37;;;;;;;;;;;18.80;47.30;;;;;;10329939;28;1980;-77
2023/03/31 08:03:33;;;;;;;;;;;18.80;47.30;;;;;;10329311;28;952;-77
2023/03/31 08:08:28;;;;;;;;;;;18.80;47.20;;;;;;10329425;28;886;-78
2023/03/31 08:13:23;;;;;;;;;;;18.80;47.30;;;;;;10329690;28;873;-78
2023/03/31 08:18:19;;;;;;;;;;;18.70;47.20;;;;;;10328473;28;1893;-78
2023/03/31 08:23:14;;;;;;;;;;;18.70;47.30;;;;;;10328204;28;967;-78
2023/03/31 08:28:12;;;;;;;;;;;18.70;47.30;;;;;;10327694;28;1160;-77
2023/03/31 08:33:08;;;;;;;;;;;18.70;47.40;;;;;;10328720;28;806;-70
2023/03/31 08:38:03;;;;;;;;;;;18.90;47.60;;;;;;10328097;28;1963;-71
2023/03/31 08:42:59;;;;;;;;;;;18.90;48.10;;;;;;10328684;28;807;-70
2023/03/31 08:47:54;;;;;;;;;;;19.00;48.50;;;;;;10328201;28;918;-70
2023/03/31 08:52:49;;;;;;;;;;;18.90;48.70;;;;;;10327777;28;916;-77
2023/03/31 08:57:45;;;;;;;;;;;18.90;48.80;;;;;;10327113;28;2087;-77
2023/03/31 09:02:40;;;;;;;;;;;18.90;48.60;;;;;;10326221;28;857;-78
2023/03/31 09:07:37;;;;;;;;;;;18.80;48.50;;;;;;10326732;28;854;-75
2023/03/31 09:12:33;;;;;;;;;;;18.80;48.40;;;;;;10326551;28;874;-76
2023/03/31 09:17:28;;;;;;;;;;;18.80;48.20;;;;;;10325650;28;1965;-77
2023/03/31 09:22:24;;;;;;;;;;;18.80;48.20;;;;;;10326222;28;829;-77
2023/03/31 09:27:19;;;;;;;;;;;18.80;48.20;;;;;;10327018;28;909;-77
2023/03/31 09:32:15;;;;;;;;;;;18.80;48.10;;;;;;10326597;28;875;-77
2023/03/31 09:37:10;;;;;;;;;;;18.80;47.90;;;;;;10325876;28;1906;-77
2023/03/31 09:42:05;;;;;;;;;;;18.80;48.00;;;;;;10325904;28;858;-77
2023/03/31 09:47:02;;;;;;;;;;;18.80;47.90;;;;;;10325719;28;920;-77
2023/03/31 09:51:57;;;;;;;;;;;18.70;48.00;;;;;;10325620;28;852;-77
2023/03/31 09:56:53;;;;;;;;;;;18.70;48.00;;;;;;10325481;28;1977;-77
2023/03/31 10:01:48;;;;;;;;;;;18.70;47.90;;;;;;10325386;28;829;-77
2023/03/31 10:06:43;;;;;;;;;;;18.80;48.00;;;;;;10325784;28;841;-77
2023/03/31 10:11:39;;;;;;;;;;;18.80;47.90;;;;;;10326814;28;871;-77
2023/03/31 10:16:35;;;;;;;;;;;18.70;47.90;;;;;;10332762;28;1938;-77
2023/03/31 10:21:30;;;;;;;;;;;18.80;47.90;;;;;;10333435;28;877;-77
2023/03/31 10:26:26;;;;;;;;;;;18.80;48.30;;;;;;10332304;28;975;-77
2023/03/31 10:31:21;;;;;;;;;;;18.80;48.00;;;;;;10332906;28;888;-77
2023/03/31 10:36:16;;;;;;;;;;;18.80;47.90;;;;;;10332402;28;1898;-77
2023/03/31 10:41:12;;;;;;;;;;;18.70;47.80;;;;;;10332284;28;888;-77
2023/03/31 10:46:07;;;;;;;;;;;18.80;47.90;;;;;;10332337;28;867;-77
2023/03/31 10:51:03;;;;;;;;;;;18.70;47.80;;;;;;10332145;28;782;-77
2023/03/31 10:55:58;;;;;;;;;;;18.80;47.80;;;;;;10331809;28;1964;-77
2023/03/31 11:00:55;;;;;;;;;;;18.70;47.80;;;;;;10332388;28;779;-77
2023/03/31 11:05:50;;;;;;;;;;;18.70;47.80;;;;;;10332115;28;901;-76
2023/03/31 11:10:46;;;;;;;;;;;18.70;47.80;;;;;;10330804;28;906;-77
2023/03/31 11:15:41;;;;;;;;;;;18.70;47.80;;;;;;10330622;28;1902;-77
2023/03/31 11:20:36;;;;;;;;;;;18.70;47.80;;;;;;10331575;28;878;-77
2023/03/31 11:25:34;;;;;;;;;;;18.70;47.90;;;;;;10329922;28;973;-75
2023/03/31 11:30:29;;;;;;;;;;;18.70;47.80;;;;;;10330702;28;854;-74
2023/03/31 11:35:24;;;;;;;;;;;18.70;47.80;;;;;;10330648;28;1953;-73
2023/03/31 11:40:20;;;;;;;;;;;18.70;47.90;;;;;;10330876;28;1007;-77
2023/03/31 11:45:15;;;;;;;;;;;18.80;47.90;;;;;;10329909;28;879;-76
2023/03/31 11:50:11;;;;;;;;;;;18.70;47.80;;;;;;10330505;28;1150;-77
2023/03/31 11:55:06;;;;;;;;;;;18.80;47.80;;;;;;10329764;28;1918;-77
2023/03/31 12:00:02;;;;;;;;;;;18.70;47.80;;;;;;10330152;28;813;-82
2023/03/31 12:04:57;;;;;;;;;;;18.70;47.90;;;;;;10311173;28;893;-81
2023/03/31 12:09:53;;;;;;;;;;;18.80;48.00;;;;;;10329206;28;950;-79
2023/03/31 12:14:48;;;;;;;;;;;18.80;47.90;;;;;;10329024;28;960;-82
2023/03/31 12:19:44;;;;;;;;;;;18.80;48.00;;;;;;10328905;28;1897;-82
2023/03/31 12:24:39;;;;;;;;;;;18.70;47.90;;;;;;10329097;28;914;-82
2023/03/31 12:29:34;;;;;;;;;;;18.70;47.90;;;;;;10328377;28;829;-80
2023/03/31 12:34:30;;;;;;;;;;;18.70;48.00;;;;;;10327689;28;867;-80
2023/03/31 12:39:26;;;;;;;;;;;18.70;47.90;;;;;;10326775;28;1906;-80
2023/03/31 12:44:21;;;;;;;;;;;18.70;48.00;;;;;;10327685;28;799;-77
2023/03/31 12:49:16;;;;;;;;;;;18.70;47.90;;;;;;10328148;28;861;-74
2023/03/31 12:54:12;;;;;;;;;;;18.70;47.90;;;;;;10327094;28;964;-79
2023/03/31 12:59:07;;;;;;;;;;;18.70;48.00;;;;;;10326701;28;1979;-80
2023/03/31 13:04:03;;;;;;;;;;;18.70;47.90;;;;;;10326947;28;884;-76
2023/03/31 13:08:59;;;;;;;;;;;18.80;48.20;;;;;;10326804;28;858;-76
2023/03/31 13:13:55;;;;;;;;;;;18.70;48.30;;;;;;10326796;28;936;-77
2023/03/31 13:18:50;;;;;;;;;;;18.70;48.40;;;;;;10325644;28;1959;-77
2023/03/31 13:23:45;;;;;;;;;;;18.80;48.50;;;;;;10325868;28;813;-76
2023/03/31 13:28:41;;;;;;;;;;;18.70;48.70;;;;;;10326045;28;813;-76
2023/03/31 13:33:36;;;;;;;;;;;18.80;48.80;;;;;;10326282;28;900;-76
2023/03/31 13:38:32;;;;;;;;;;;18.80;48.90;;;;;;10326259;28;1910;-75
2023/03/31 13:43:27;;;;;;;;;;;18.70;48.90;;;;;;10325768;28;825;-79
2023/03/31 13:48:22;;;;;;;;;;;18.70;49.20;;;;;;10324547;28;869;-80
2023/03/31 13:53:18;;;;;;;;;;;18.70;49.00;;;;;;10325559;28;896;-80
2023/03/31 13:58:13;;;;;;;;;;;18.70;48.90;;;;;;10325560;28;1997;-81
2023/03/31 14:03:10;;;;;;;;;;;18.70;48.80;;;;;;10324219;28;1139;-80
2023/03/31 14:08:05;;;;;;;;;;;18.70;48.80;;;;;;10325657;28;894;-79
2023/03/31 14:13:00;;;;;;;;;;;18.80;48.80;;;;;;10324308;28;905;-79
2023/03/31 14:17:56;;;;;;;;;;;18.80;48.60;;;;;;10324738;28;1981;-80
2023/03/31 14:22:51;;;;;;;;;;;18.80;48.60;;;;;;10324745;28;797;-80
2023/03/31 14:27:47;;;;;;;;;;;18.80;48.60;;;;;;10324934;28;862;-79
2023/03/31 14:32:42;;;;;;;;;;;18.80;48.60;;;;;;10324360;28;933;-80
2023/03/31 14:37:37;;;;;;;;;;;18.80;48.50;;;;;;10324295;28;1902;-77
2023/03/31 14:42:33;;;;;;;;;;;18.80;48.50;;;;;;10324243;28;932;-80
2023/03/31 14:47:28;;;;;;;;;;;18.80;48.40;;;;;;10324286;28;802;-80
2023/03/31 14:52:24;;;;;;;;;;;18.80;48.50;;;;;;10323660;28;782;-80
2023/03/31 14:57:20;;;;;;;;;;;18.80;48.50;;;;;;10323450;28;1981;-77
2023/03/31 15:02:15;;;;;;;;;;;18.80;48.40;;;;;;10329705;28;866;-77
2023/03/31 15:07:10;;;;;;;;;;;18.80;48.30;;;;;;10331314;28;801;-76
2023/03/31 15:12:06;;;;;;;;;;;18.80;48.40;;;;;;10330902;28;1097;-77
2023/03/31 15:17:01;;;;;;;;;;;18.80;48.30;;;;;;10329052;28;1953;-76
2023/03/31 15:22:00;;;;;;;;;;;18.80;48.30;;;;;;10328246;28;1074;-76
2023/03/31 15:26:56;;;;;;;;;;;18.80;48.20;;;;;;10329370;28;985;-77
2023/03/31 15:31:51;;;;;;;;;;;18.80;48.30;;;;;;10329847;28;941;-75
2023/03/31 15:36:47;;;;;;;;;;;18.80;48.30;;;;;;10329760;28;1947;-75
2023/03/31 15:41:42;;;;;;;;;;;18.80;48.30;;;;;;10330410;28;1008;-75
2023/03/31 15:46:37;;;;;;;;;;;18.80;48.20;;;;;;10329464;28;719;-76
2023/03/31 15:51:33;;;;;;;;;;;18.80;48.30;;;;;;10330400;28;877;-75
2023/03/31 15:56:28;;;;;;;;;;;18.70;48.20;;;;;;10328456;28;1898;-77
2023/03/31 16:01:24;;;;;;;;;;;18.70;48.30;;;;;;10329218;28;857;-76
2023/03/31 16:06:19;;;;;;;;;;;18.70;48.20;;;;;;10328611;28;969;-77
2023/03/31 16:11:14;;;;;;;;;;;18.70;48.20;;;;;;10328837;28;1083;-76
2023/03/31 16:16:10;;;;;;;;;;;18.70;48.30;;;;;;10327604;28;1890;-74
2023/03/31 16:21:05;;;;;;;;;;;18.80;48.40;;;;;;10329229;28;857;-73
2023/03/31 16:26:02;;;;;;;;;;;18.70;48.40;;;;;;10327925;28;789;-76
2023/03/31 16:31:00;;;;;;;;;;;18.70;48.60;;;;;;10328954;28;833;-75
2023/03/31 16:35:57;;;;;;;;;;;18.70;48.60;;;;;;10327717;28;1886;-75
2023/03/31 16:40:53;;;;;;;;;;;18.70;48.50;;;;;;10328552;28;896;-75
2023/03/31 16:45:48;;;;;;;;;;;18.70;48.50;;;;;;10327225;28;974;-75
2023/03/31 16:50:44;;;;;;;;;;;18.70;48.50;;;;;;10327564;28;802;-75
2023/03/31 16:55:39;;;;;;;;;;;18.70;48.50;;;;;;10327606;28;1898;-75
2023/03/31 17:00:35;;;;;;;;;;;18.70;48.40;;;;;;10327288;28;909;-75
2023/03/31 17:05:32;;;;;;;;;;;18.70;48.40;;;;;;10326923;28;898;-74
2023/03/31 17:10:28;;;;;;;;;;;18.70;48.40;;;;;;10326817;28;842;-75
2023/03/31 17:15:23;;;;;;;;;;;18.70;48.30;;;;;;10326608;28;1957;-75
2023/03/31 17:20:18;;;;;;;;;;;18.70;48.30;;;;;;10326592;28;806;-71
2023/03/31 17:25:14;;;;;;;;;;;18.70;48.40;;;;;;10326366;28;849;-71
2023/03/31 17:30:10;;;;;;;;;;;18.70;48.30;;;;;;10326188;28;801;-71
2023/03/31 17:35:05;;;;;;;;;;;18.70;48.30;;;;;;10325983;28;1948;-75
2023/03/31 17:40:01;;;;;;;;;;;18.70;48.40;;;;;;10325971;28;880;-75
2023/03/31 17:44:57;;;;;;;;;;;18.70;48.20;;;;;;10326407;28;975;-75
2023/03/31 17:49:52;;;;;;;;;;;18.70;48.20;;;;;;10325645;28;973;-74
2023/03/31 17:54:48;;;;;;;;;;;18.60;48.20;;;;;;10325258;28;1647;-75
2023/03/31 17:59:43;;;;;;;;;;;18.70;48.30;;;;;;10326003;28;1918;-75
2023/03/31 18:04:39;;;;;;;;;;;18.70;48.20;;;;;;10325299;28;931;-75
2023/03/31 18:09:35;;;;;;;;;;;18.70;48.20;;;;;;10325935;28;767;-74
2023/03/31 18:14:31;;;;;;;;;;;18.70;48.20;;;;;;10325165;28;837;-75
2023/03/31 18:19:29;;;;;;;;;;;18.60;48.20;;;;;;10325918;28;1914;-75
2023/03/31 18:24:24;;;;;;;;;;;18.70;48.20;;;;;;10324805;28;950;-75
2023/03/31 18:29:20;;;;;;;;;;;18.70;48.10;;;;;;10324806;28;960;-74
2023/03/31 18:34:15;;;;;;;;;;;18.70;48.20;;;;;;10329020;28;822;-74
2023/03/31 18:39:11;;;;;;;;;;;18.60;48.20;;;;;;10333298;28;1965;-75
2023/03/31 18:44:07;;;;;;;;;;;18.60;48.20;;;;;;10332548;28;756;-75
2023/03/31 18:49:03;;;;;;;;;;;18.60;48.80;;;;;;10332457;28;870;-74
2023/03/31 18:53:58;;;;;;;;;;;18.60;48.20;;;;;;10332190;28;918;-74
2023/03/31 18:58:54;;;;;;;;;;;18.70;48.20;;;;;;10333169;28;1913;-74
2023/03/31 19:03:49;;;;;;;;;;;18.70;48.10;;;;;;10331799;28;913;-74
2023/03/31 19:08:44;;;;;;;;;;;18.70;48.10;;;;;;10331622;28;985;-74
2023/03/31 19:13:41;;;;;;;;;;;18.60;48.10;;;;;;10332019;28;834;-75
2023/03/31 19:18:37;;;;;;;;;;;18.60;48.10;;;;;;10332434;28;1910;-74
2023/03/31 19:23:33;;;;;;;;;;;18.60;48.10;;;;;;10330459;28;914;-74
2023/03/31 19:28:29;;;;;;;;;;;18.60;48.10;;;;;;10331734;28;925;-75
2023/03/31 19:33:24;;;;;;;;;;;18.60;48.00;;;;;;10331500;28;872;-74
2023/03/31 19:38:25;;;;;;;;;;;18.60;48.10;;;;;;10331067;28;1905;-75
2023/03/31 19:43:21;;;;;;;;;;;18.60;48.00;;;;;;10331119;28;897;-75
2023/03/31 19:48:18;;;;;;;;;;;18.70;48.00;;;;;;10328934;28;910;-74
2023/03/31 19:53:13;;;;;;;;;;;18.60;48.00;;;;;;10329944;28;867;-74
2023/03/31 19:58:09;;;;;;;;;;;18.60;48.00;;;;;;10329949;28;1913;-74
2023/03/31 20:03:05;;;;;;;;;;;18.60;48.00;;;;;;10329587;28;879;-74
2023/03/31 20:08:01;;;;;;;;;;;18.60;48.10;;;;;;10329389;28;825;-75
2023/03/31 20:12:56;;;;;;;;;;;18.60;48.10;;;;;;10329251;28;861;-74
2023/03/31 20:17:52;;;;;;;;;;;18.60;48.10;;;;;;10328320;28;1910;-74
2023/03/31 20:22:47;;;;;;;;;;;18.50;48.00;;;;;;10328800;28;900;-74
2023/03/31 20:27:42;;;;;;;;;;;18.50;48.00;;;;;;10328562;28;877;-74
2023/03/31 20:32:38;;;;;;;;;;;18.50;48.00;;;;;;10328987;28;837;-74
2023/03/31 20:37:33;;;;;;;;;;;18.50;48.10;;;;;;10328468;28;1910;-75
2023/03/31 20:42:29;;;;;;;;;;;18.50;48.00;;;;;;10327955;28;806;-75
2023/03/31 20:47:25;;;;;;;;;;;18.50;48.00;;;;;;10327800;28;813;-75
2023/03/31 20:52:20;;;;;;;;;;;18.50;48.10;;;;;;10327940;28;869;-74
2023/03/31 20:57:16;;;;;;;;;;;18.50;48.10;;;;;;10326606;28;1918;-75
2023/03/31 21:02:11;;;;;;;;;;;18.50;48.10;;;;;;10328050;28;872;-74
2023/03/31 21:07:07;;;;;;;;;;;18.50;48.10;;;;;;10327612;28;888;-74
2023/03/31 21:12:03;;;;;;;;;;;18.50;48.10;;;;;;10326856;28;821;-75
2023/03/31 21:16:59;;;;;;;;;;;18.50;48.00;;;;;;10326626;28;1909;-74
2023/03/31 21:21:54;;;;;;;;;;;18.50;48.00;;;;;;10326492;28;870;-75
2023/03/31 21:26:49;;;;;;;;;;;18.40;48.00;;;;;;10325841;28;903;-75
2023/03/31 21:31:45;;;;;;;;;;;18.40;48.10;;;;;;10326438;28;783;-74
2023/03/31 21:36:41;;;;;;;;;;;18.40;48.10;;;;;;10326425;28;1906;-74
2023/03/31 21:41:38;;;;;;;;;;;18.40;48.10;;;;;;10325962;28;866;-74
2023/03/31 21:46:33;;;;;;;;;;;18.40;48.70;;;;;;10325750;28;835;-74
2023/03/31 21:51:29;;;;;;;;;;;18.40;48.20;;;;;;10326965;28;904;-74
2023/03/31 21:56:25;;;;;;;;;;;18.40;48.10;;;;;;10325998;28;1918;-75
2023/03/31 22:01:21;;;;;;;;;;;18.40;48.00;;;;;;10326023;28;945;-74
2023/03/31 22:06:16;;;;;;;;;;;18.40;48.10;;;;;;10324775;28;1152;-74
2023/03/31 22:11:12;;;;;;;;;;;18.40;48.10;;;;;;10325053;28;790;-74
2023/03/31 22:16:07;;;;;;;;;;;18.40;48.00;;;;;;10325070;28;1965;-74
2023/03/31 22:21:02;;;;;;;;;;;18.40;48.10;;;;;;10325964;28;802;-74
2023/03/31 22:25:58;;;;;;;;;;;18.40;48.20;;;;;;10325601;28;890;-74
2023/03/31 22:30:53;;;;;;;;;;;18.40;48.20;;;;;;10324948;28;857;-74
2023/03/31 22:35:49;;;;;;;;;;;18.40;48.20;;;;;;10324738;28;1893;-74
2023/03/31 22:40:44;;;;;;;;;;;18.30;48.10;;;;;;10324751;28;822;-75
2023/03/31 22:45:40;;;;;;;;;;;18.30;48.10;;;;;;10325307;28;921;-74
2023/03/31 22:50:36;;;;;;;;;;;18.30;48.10;;;;;;10325184;28;774;-74
2023/03/31 22:55:31;;;;;;;;;;;18.30;48.10;;;;;;10324465;28;1917;-74
2023/03/31 23:00:26;;;;;;;;;;;18.30;48.10;;;;;;10325071;28;877;-75
2023/03/31 23:05:23;;;;;;;;;;;18.30;48.10;;;;;;10324846;28;769;-74
2023/03/31 23:10:18;;;;;;;;;;;18.40;48.20;;;;;;10324751;28;1056;-74
2023/03/31 23:15:13;;;;;;;;;;;18.30;48.10;;;;;;10323498;28;940;-75
2023/03/31 23:20:09;;;;;;;;;;;18.30;48.10;;;;;;10325638;28;1897;-75
2023/03/31 23:25:05;;;;;;;;;;;18.30;48.10;;;;;;10331936;28;761;-74
2023/03/31 23:30:00;;;;;;;;;;;18.30;48.10;;;;;;10330946;28;802;-74
2023/03/31 23:34:56;;;;;;;;;;;18.30;48.10;;;;;;10330778;28;864;-74
2023/03/31 23:39:51;;;;;;;;;;;18.30;48.10;;;;;;10330496;28;1901;-75
2023/03/31 23:44:46;;;;;;;;;;;18.30;48.10;;;;;;10330388;28;886;-74
2023/03/31 23:49:42;;;;;;;;;;;18.30;48.20;;;;;;10330203;28;783;-75
2023/03/31 23:54:37;;;;;;;;;;;18.30;48.10;;;;;;10329853;28;1304;-74
2023/03/31 23:59:32;;;;;;;;;;;18.30;48.10;;;;;;10329634;28;1964;-75
